• Join FlightAware (Why Join?)
  • Login
  • US Flag 
05:07AM EDT


 

Airport Tracker/Info


-or-


 

Live Flight TrackerFlight Track Log ✈ SWA3206 ✈ 02-May-2013 ✈ KMDW - KSAN

Flight Track Log - Related Links

Times and Time Zones

All times are in EDT time to prevent confusion due to time zone crossing. See the SWA3206 flight status page for this flight to view local times or setup timezone preferences in your user account.

Time Position Orientation Groundspeed Altitude Reporting Facility
EDT Latitude Longitude Course Direction KTS MPH feet Rate Location/Type
02:03PM 41.8000 -87.7833 258° West 173 199 2,000  Level Chicago TRACON
02:04PM 41.7667 -87.8500 236° Southwest 233 268 4,000 2,640 Climbing Chicago TRACON
02:05PM 41.7167 -87.9167 225° Southwest 271 312 7,100 3,300 Climbing Chicago TRACON
02:06PM 41.7336 -87.9989 285° West 292 336 9,900 2,640 Climbing Chicago Center
02:07PM 41.7700 -88.0986 296° West 305 351 12,000 2,040 Climbing Chicago Center
02:08PM 41.7733 -88.2092 272° West 301 346 14,100 2,340 Climbing Chicago Center
02:09PM 41.6497 -88.6187 258° West  Level Estimated
02:09PM 41.7694 -88.3250 267° West 313 360 16,800  Level Chicago Center
02:10PM 41.7408 -88.4806 256° West 362 417 18,300 1,980 Climbing Chicago Center
02:11PM 41.7042 -88.6142 250° West 385 443 20,900 2,760 Climbing Chicago Center
02:12PM 41.6619 -88.7428 246° West 382 440 24,100 2,760 Climbing Chicago Center
02:13PM 41.6264 -88.8700 250° West 372 428 26,700 2,160 Climbing Chicago Center
02:14PM 41.5978 -88.9994 254° West 367 422 28,600 1,860 Climbing Chicago Center
02:15PM 41.5717 -89.1681 258° West 389 448 30,600 1,080 Climbing Chicago Center
02:16PM 41.5486 -89.3158 258° West 406 467 30,900 600 Climbing Chicago Center
02:17PM 41.5239 -89.4625 257° West 440 506 31,900 1,320 Climbing Chicago Center
02:18PM 41.4972 -89.6236 258° West 446 513 33,700 1,980 Climbing Chicago Center
02:19PM 41.4658 -89.8108 257° West 436 502 36,100 1,920 Climbing Chicago Center
02:20PM 41.4400 -89.9592 257° West 417 480 37,700 900 Climbing Chicago Center
02:21PM 41.4156 -90.1056 257° West 410 472 38,000 120 Climbing Chicago Center
02:22PM 41.3894 -90.2514 257° West 409 471 38,000  Level Chicago Center
02:23PM 41.3647 -90.3983 257° West 409 471 38,000  Level Chicago Center
02:24PM 41.3331 -90.5758 257° West 412 474 38,000  Level Chicago Center
02:25PM 41.2981 -90.7208 252° West 411 473 38,000  Level Chicago Center
02:26PM 41.2633 -90.8622 252° West 403 464 38,000  Level Chicago Center
02:27PM 41.2381 -91.0064 257° West 401 461 38,000  Level Chicago Center
02:28PM 41.2125 -91.1508 257° West 402 463 38,000  Level Chicago Center
02:29PM 41.1875 -91.2939 257° West 400 460 38,000  Level Chicago Center
02:30PM 41.1564 -91.4650 256° West 398 458 38,000  Level Chicago Center
02:31PM 41.1306 -91.6094 257° West 402 463 38,000  Level Chicago Center
02:33PM 41.1036 -91.7533 256° West 403 464 38,000  Level Chicago Center
02:34PM 41.0772 -91.8989 257° West 407 468 38,000  Level Chicago Center
02:35PM 41.0511 -92.0425 256° West 406 467 38,000  Level Chicago Center
02:36PM 41.0186 -92.2172 256° West 410 472 38,000  Level Chicago Center
02:37PM 40.9919 -92.3603 256° West 406 467 38,000  Level Chicago Center
02:38PM 40.9644 -92.5056 256° West 410 472 38,000  Level Chicago Center
02:39PM 40.9375 -92.6486 256° West 408 470 38,000  Level Chicago Center
02:40PM 40.9042 -92.8189 256° West 405 466 38,000  Level Chicago Center
02:40PM 40.8931 -92.8775 256° West 406 467 38,000  Level Minneapolis Center
02:41PM 40.8656 -93.0208 256° West 407 468 38,000  Level Minneapolis Center
02:42PM 40.8367 -93.1617 255° West 404 465 38,000  Level Minneapolis Center
02:43PM 40.8097 -93.3011 256° West 400 460 38,000  Level Minneapolis Center
02:44PM 40.7811 -93.4414 255° West 399 459 38,000  Level Minneapolis Center
02:45PM 40.7478 -93.6086 255° West 398 458 38,000  Level Minneapolis Center
02:46PM 40.7194 -93.7483 255° West 398 458 38,000  Level Minneapolis Center
02:47PM 40.6919 -93.8883 256° West 398 458 38,000  Level Minneapolis Center
02:48PM 40.6614 -94.0286 254° West 399 459 38,000  Level Minneapolis Center
02:49PM 40.6317 -94.1675 254° West 399 459 38,000  Level Minneapolis Center
02:50PM 40.5986 -94.3347 255° West 399 459 38,000  Level Minneapolis Center
02:52PM 40.5678 -94.4731 254° West 397 457 38,000  Level Minneapolis Center
02:53PM 40.5347 -94.6375 255° West 391 450 38,000  Level Minneapolis Center
02:54PM 40.5058 -94.7756 255° West 389 448 38,000  Level Minneapolis Center
02:55PM 40.4761 -94.9125 254° West 391 450 38,000  Level Minneapolis Center
02:56PM 40.4481 -95.0494 255° West 389 448 38,000  Level Minneapolis Center
02:57PM 40.4183 -95.1828 254° West 383 441 38,000  Level Minneapolis Center
02:58PM 40.3847 -95.3411 254° West 377 434 38,000  Level Minneapolis Center
02:59PM 40.3558 -95.4733 254° West 376 433 38,000  Level Minneapolis Center
03:00PM 40.3275 -95.6047 254° West 375 432 38,000  Level Minneapolis Center
03:01PM 40.2983 -95.7369 254° West 376 433 38,000  Level Minneapolis Center
03:02PM 40.2692 -95.8683 254° West 376 433 38,000  Level Minneapolis Center
03:03PM 40.2400 -95.9989 254° West 374 430 38,000  Level Minneapolis Center
03:04PM 40.2103 -96.1325 254° West 378 435 38,000  Level Minneapolis Center
03:05PM 40.1733 -96.2944 253° West 385 443 38,000  Level Minneapolis Center
03:06PM 40.1425 -96.4300 253° West 388 447 38,000  Level Minneapolis Center
03:07PM 40.1106 -96.5683 253° West 393 452 38,000  Level Minneapolis Center
03:08PM 40.0789 -96.7050 253° West 394 453 38,000  Level Minneapolis Center
03:09PM 40.0464 -96.8453 253° West 399 459 38,000  Level Minneapolis Center
03:10PM 40.0200 -96.9572 253° West 402 463 38,000  Level Minneapolis Center
03:11PM 39.9811 -97.1289 254° West 409 471 38,000  Level Minneapolis Center
03:12PM 39.9386 -97.3011 252° West 415 478 38,000  Level Minneapolis Center
03:13PM 39.9072 -97.4347 253° West 416 479 38,000  Level Minneapolis Center
03:14PM 39.8731 -97.5786 253° West 415 478 38,000  Level Minneapolis Center
03:15PM 39.8389 -97.7214 253° West 413 475 38,000  Level Minneapolis Center
03:16PM 39.8106 -97.8353 252° West 413 475 38,000  Level Minneapolis Center
03:17PM 39.7622 -98.0350 253° West 413 475 38,000  Level Minneapolis Center
03:19PM 39.7275 -98.1781 253° West 414 476 38,000  Level Minneapolis Center
03:20PM 39.6917 -98.3192 252° West 412 474 38,000  Level Minneapolis Center
03:21PM 39.6569 -98.4600 252° West 410 472 38,000  Level Minneapolis Center
03:22PM 39.6219 -98.6000 252° West 409 471 38,000  Level Minneapolis Center
03:22PM 39.5931 -98.7136 252° West 408 470 38,000  Level Denver Center
03:24PM 39.5511 -98.8800 252° West 405 466 38,000  Level Denver Center
03:25PM 39.5161 -99.0197 252° West 407 468 38,000  Level Denver Center
03:26PM 39.4803 -99.1592 252° West 406 467 38,000  Level Denver Center
03:27PM 39.4403 -99.3111 251° West 409 471 38,000  Level Denver Center
03:28PM 39.4000 -99.4647 251° West 403 464 38,000  Level Denver Center
03:29PM 39.3606 -99.6178 252° West 403 464 38,000  Level Denver Center
03:30PM 39.3264 -99.7492 251° West 403 464 38,000  Level Denver Center
03:31PM 39.2861 -99.9008 251° West 400 460 38,000  Level Denver Center
03:32PM 39.2517 -100.0317 251° West 401 461 38,000  Level Denver Center
03:33PM 39.2164 -100.1608 251° West 400 460 38,000  Level Denver Center
03:34PM 39.1769 -100.3131 252° West 400 460 38,000  Level Denver Center
03:35PM 39.1411 -100.4428 250° West 402 463 38,000  Level Denver Center
03:36PM 39.0992 -100.5944 250° West 402 463 38,000  Level Denver Center
03:37PM 39.0642 -100.7253 251° West 403 464 38,000  Level Denver Center
03:38PM 39.0214 -100.8778 250° West 405 466 38,000  Level Denver Center
03:39PM 38.9883 -101.0025 251° West 414 476 38,000  Level Denver Center
03:40PM 38.9456 -101.1531 250° West 403 464 38,000  Level Denver Center
03:41PM 38.9094 -101.2819 250° West 402 463 38,000  Level Denver Center
03:42PM 38.8675 -101.4328 250° West 403 464 38,000  Level Denver Center
03:43PM 38.8306 -101.5639 250° West 407 468 38,000  Level Denver Center
03:44PM 38.7867 -101.7164 250° West 410 472 38,000  Level Denver Center
03:45PM 38.7494 -101.8494 250° West 413 475 38,000  Level Denver Center
03:46PM 38.7042 -102.0058 250° West 421 484 38,000  Level Denver Center
03:47PM 38.6661 -102.1392 250° West 419 482 38,000  Level Denver Center
03:48PM 38.6211 -102.2956 250° West 422 486 38,000  Level Denver Center
03:49PM 38.5828 -102.4283 250° West 418 481 38,000  Level Denver Center
03:50PM 38.5422 -102.5608 249° West 419 482 38,000  Level Denver Center
03:52PM 38.4972 -102.7167 250° West 419 482 38,000  Level Denver Center
03:53PM 38.4581 -102.8503 250° West 420 483 38,000  Level Denver Center
03:54PM 38.4111 -103.0064 249° West 424 488 38,000  Level Denver Center
03:55PM 38.3717 -103.1403 249° West 422 486 38,000  Level Denver Center
03:56PM 38.3244 -103.2969 249° West 424 488 38,000  Level Denver Center
03:57PM 38.2833 -103.4356 249° West 427 491 38,000  Level Denver Center
03:58PM 38.2350 -103.5928 249° West 428 493 38,000  Level Denver Center
03:59PM 38.1933 -103.7283 249° West 430 495 38,000  Level Denver Center
04:00PM 38.1450 -103.8878 249° West 434 499 38,000  Level Denver Center
04:01PM 38.1033 -104.0242 249° West 435 501 38,000  Level Denver Center
04:02PM 38.0531 -104.1800 248° West 428 493 38,000  Level Denver Center
04:03PM 38.0128 -104.3122 249° West 424 488 38,000  Level Denver Center
04:04PM 37.9644 -104.4664 248° West 423 487 38,000  Level Denver Center
04:05PM 37.9228 -104.5994 248° West 425 489 38,000  Level Denver Center
04:06PM 37.8736 -104.7536 248° West 425 489 38,000  Level Denver Center
04:07PM 37.8322 -104.8853 248° West 424 488 38,000  Level Denver Center
04:08PM 37.7822 -105.0400 248° West 425 489 38,000  Level Denver Center
04:09PM 37.7400 -105.1700 248° West 420 483 38,000  Level Denver Center
04:10PM 37.6914 -105.3211 248° West 418 481 38,000  Level Denver Center
04:11PM 37.6481 -105.4508 247° West 420 483 38,000  Level Denver Center
04:12PM 37.6072 -105.5808 248° West 418 481 38,000  Level Denver Center
04:13PM 37.5564 -105.7344 247° West 424 488 38,000  Level Denver Center
04:14PM 37.5103 -105.8778 248° West 419 482 38,000  Level Denver Center
04:15PM 37.4658 -106.0092 247° West 425 489 38,000  Level Denver Center
04:16PM 37.4150 -106.1636 248° West 427 491 38,000  Level Denver Center
04:17PM 37.3694 -106.2933 246° West 424 488 38,000  Level Denver Center
04:18PM 37.3192 -106.4444 247° West 422 486 38,000  Level Denver Center
04:19PM 37.2767 -106.5736 248° West 419 482 38,000  Level Denver Center
04:20PM 37.2258 -106.7233 247° West 418 481 38,000  Level Denver Center
04:21PM 37.1831 -106.8514 247° West 416 479 38,000  Level Denver Center
04:23PM 37.1383 -106.9792 246° West 418 481 38,000  Level Denver Center
04:24PM 37.0875 -107.1292 247° West 419 482 38,000  Level Denver Center
04:25PM 37.0439 -107.2553 247° West 413 475 38,000  Level Denver Center
04:26PM 36.9950 -107.3972 247° West 400 460 38,000  Level Denver Center
04:27PM 36.9517 -107.5192 246° West 400 460 38,000  Level Denver Center
04:28PM 36.9014 -107.6633 246° West 404 465 38,000  Level Denver Center
04:29PM 36.8589 -107.7878 247° West 406 467 38,000  Level Denver Center
04:30PM 36.8067 -107.9333 246° West 411 473 38,000  Level Denver Center
04:31PM 36.7614 -108.0581 246° West 412 474 38,000  Level Denver Center
04:32PM 36.7039 -108.2033 244° Southwest 418 481 38,000  Level Denver Center
04:33PM 36.6519 -108.3267 242° Southwest 420 483 38,000  Level Denver Center
04:34PM 36.5992 -108.4475 241° Southwest 418 481 38,000  Level Denver Center
04:35PM 36.5389 -108.5911 242° Southwest 419 482 38,000  Level Denver Center
04:36PM 36.4864 -108.7122 242° Southwest 418 481 38,000  Level Denver Center
04:37PM 36.4261 -108.8536 242° Southwest 418 481 38,000  Level Denver Center
04:38PM 36.3739 -108.9722 241° Southwest 414 476 38,000  Level Denver Center
04:39PM 36.3133 -109.1086 241° Southwest 409 471 38,000  Level Denver Center
04:41PM 36.2315 -109.2709 241° Southwest  Level FlightAware Approximate
04:44PM 36.0367 -109.7381 241° Southwest 391 450 38,000  Level Albuquerque Center
04:45PM 35.9856 -109.8528 244° Southwest 395 455 38,000  Level Denver Center
04:46PM 35.9729 -109.8986 244° Southwest  Level Estimated
04:46PM 35.9333 -109.9667 241° Southwest 398 458 38,000  Level Denver Center
04:47PM 35.8733 -110.0997 241° Southwest 398 458 38,000  Level Denver Center
04:48PM 35.8584 -110.1029 241° Southwest  Level FlightAware Approximate
04:48PM 35.8142 -110.2333 241° Southwest 398 458 38,000  Level Albuquerque Center
04:49PM 35.8046 -110.2211 241° Southwest  Level FlightAware Approximate
04:49PM 35.7631 -110.3469 241° Southwest 398 458 38,000  Level Albuquerque Center
04:51PM 35.6608 -110.5733 241° Southwest 401 461 38,000  Level Los Angeles Center
04:51PM 35.6544 -110.5975 252° West 400 460 38,000  Level Albuquerque Center
04:53PM 35.6304 -110.7479 244° Southwest  Level Estimated
04:53PM 35.6139 -110.7194 248° West 401 461 38,000  Level Albuquerque Center
04:54PM 35.5650 -110.8597 247° West 401 461 38,000  Level Albuquerque Center
04:55PM 35.5231 -110.9797 247° West 400 460 38,000  Level Albuquerque Center
04:56PM 35.4703 -111.1183 245° Southwest 400 460 38,000  Level Albuquerque Center
04:57PM 35.4281 -111.2381 247° West 400 460 38,000  Level Albuquerque Center
04:58PM 35.3769 -111.3761 246° West 399 459 38,000  Level Albuquerque Center
04:59PM 35.3317 -111.5008 246° West 401 461 38,000  Level Albuquerque Center
05:00PM 35.2847 -111.6253 245° Southwest 402 463 38,000  Level Albuquerque Center
05:01PM 35.2394 -111.7492 246° West 402 463 38,000  Level Albuquerque Center
05:02PM 35.1936 -111.8731 246° West 400 460 38,000  Level Albuquerque Center
05:03PM 35.1475 -111.9953 245° Southwest 399 459 38,000  Level Albuquerque Center
05:04PM 35.0894 -112.1431 244° Southwest 401 461 38,000  Level Albuquerque Center
05:05PM 35.0436 -112.2681 246° West 403 464 38,000  Level Albuquerque Center
05:06PM 34.9961 -112.3925 245° Southwest 405 466 38,000  Level Albuquerque Center
05:07PM 34.9497 -112.5181 246° West 406 467 38,000 -300 Level Albuquerque Center
05:08PM 34.9017 -112.6431 245° Southwest 406 467 37,400 -780 Descending Albuquerque Center
05:09PM 34.8533 -112.7689 245° Southwest 408 470 36,500 -960 Descending Albuquerque Center
05:10PM 34.8053 -112.8964 245° Southwest 411 473 35,500 -960 Descending Albuquerque Center
05:11PM 34.7561 -113.0236 245° Southwest 413 475 34,600 -780 Descending Albuquerque Center
05:12PM 34.6975 -113.1772 245° Southwest 417 480 34,000 -300 Descending Albuquerque Center
05:13PM 34.6486 -113.3019 245° Southwest 412 474 34,000  Level Albuquerque Center
05:14PM 34.5992 -113.4275 244° Southwest 413 475 34,000  Level Albuquerque Center
05:15PM 34.5503 -113.5528 245° Southwest 413 475 34,000  Level Albuquerque Center
05:16PM 34.4972 -113.6875 244° Southwest 411 473 34,000  Level Albuquerque Center
05:17PM 34.4481 -113.8125 245° Southwest 411 473 34,000  Level Albuquerque Center
05:18PM 34.3989 -113.9369 244° Southwest 411 473 34,000  Level Albuquerque Center
05:19PM 34.3503 -114.0606 245° Southwest 409 471 34,000 -300 Level Albuquerque Center
05:20PM 34.2906 -114.2111 244° Southwest 410 472 33,400 -840 Descending Albuquerque Center
05:21PM 34.2406 -114.3364 244° Southwest 412 474 32,300 -1,080 Descending Albuquerque Center
05:22PM 34.2006 -114.4372 244° Southwest 404 465 31,400 -1,020 Descending Los Angeles Center
05:23PM 34.1525 -114.5569 244° Southwest 397 457 30,400 -720 Descending Los Angeles Center
05:24PM 34.1047 -114.6758 244° Southwest 395 455 30,000 -240 Descending Los Angeles Center
05:25PM 34.0539 -114.7933 242° Southwest 395 455 30,000  Level Los Angeles Center
05:26PM 33.9908 -114.9328 241° Southwest 395 455 30,000  Level Los Angeles Center
05:27PM 33.9397 -115.0500 242° Southwest 396 456 30,000  Level Los Angeles Center
05:29PM 33.8875 -115.1672 242° Southwest 399 459 30,000  Level Los Angeles Center
05:30PM 33.8344 -115.2850 242° Southwest 399 459 30,000  Level Los Angeles Center
05:31PM 33.7828 -115.4022 242° Southwest 399 459 30,000  Level Los Angeles Center
05:32PM 33.7289 -115.5206 241° Southwest 404 465 30,000 -420 Level Los Angeles Center
05:33PM 33.6669 -115.6592 242° Southwest 394 453 29,200 -1,320 Descending Los Angeles Center
05:34PM 33.6153 -115.7722 241° Southwest 388 447 27,300 -1,980 Descending Los Angeles Center
05:35PM 33.5564 -115.8747 235° Southwest 376 433 25,200 -1,800 Descending Los Angeles Center
05:36PM 33.4967 -115.9764 235° Southwest 376 433 23,600 -1,260 Descending Los Angeles Center
05:37PM 33.4400 -116.0761 236° Southwest 367 422 22,600 -1,140 Descending Los Angeles Center
05:38PM 33.3714 -116.1933 235° Southwest 362 417 21,300 -1,740 Descending Los Angeles Center
05:39PM 33.3008 -116.2650 220° Southwest 357 411 19,000 -2,160 Descending Los Angeles Center
05:40PM 33.2064 -116.2800 188° South 346 398 16,800 -2,040 Descending Los Angeles Center
05:41PM 33.1156 -116.2953 188° South 337 388 14,900 -1,680 Descending Los Angeles Center
05:42PM 33.0333 -116.3306 200° South 331 381 13,400 -1,200 Descending Los Angeles Center
05:43PM 32.9708 -116.3997 223° Southwest 317 365 12,500 -900 Descending Los Angeles Center
05:44PM 32.8961 -116.4794 222° Southwest 299 344 11,600 -1,020 Descending Los Angeles Center
05:45PM 32.8444 -116.5364 223° Southwest 281 323 10,400 -1,140 Descending Los Angeles Center
05:46PM 32.8083 -116.6086 239° Southwest 260 299 9,300 -1,260 Descending Los Angeles Center
05:47PM 32.7717 -116.6978 244° Southwest 252 290 7,800 -1,320 Descending Los Angeles Center
05:48PM 32.7397 -116.7731 243° Southwest 254 292 6,600 -960 Descending Los Angeles Center
05:49PM 32.7103 -116.8422 243° Southwest 243 280 5,800 -960 Descending Los Angeles Center
05:50PM 32.7000 -116.8833 253° West 217 250 5,200 -1,080 Descending Southern California TRACON
05:51PM 32.6667 -116.9500 239° Southwest 209 241 4,200 -1,080 Descending Southern California TRACON
05:52PM 32.6833 -117.0000 292° West 201 231 3,100 -1,080 Descending Southern California TRACON
05:53PM 32.7000 -117.0667 287° West 185 213 2,100 -960 Descending Southern California TRACON
05:54PM 32.7167 -117.1167 292° West 159 183 1,200 -900 Descending Southern California TRACON
05:54PM 32.7228 -117.1461 284° West 158 182 600 -900 Descending Los Angeles Center
05:57PM 32.7333 -117.1833 281° West  Level FlightAware Approximate
06:04PM 32.7336 -117.1897 281° West  Level Estimated